Time;durP1;ratioP1;P1;durP2;ratioP2;P2;SDS_P1;SDS_P2;PMS_P1;PMS_P2;Temp;Humidity;BMP_temperature;BMP_pressure;BME280_temperature;BME280_humidity;BME280_pressure;Samples;Min_cycle;Max_cycle;Signal;HPM_P1;HPM_P2
2021/12/02 00:00:15;;;;;;;16.60;2.33;;;8.00;84.50;;;;;;5134206;27;20031;-74
2021/12/02 00:02:41;;;;;;;5.60;1.40;;;8.00;84.20;;;;;;5134283;27;20027;-74
2021/12/02 00:05:07;;;;;;;5.28;1.25;;;8.10;83.20;;;;;;5133453;27;20122;-74
2021/12/02 00:07:32;;;;;;;6.90;1.50;;;8.00;81.90;;;;;;5133441;27;20045;-74
2021/12/02 00:09:58;;;;;;;5.72;1.40;;;8.00;80.20;;;;;;5134464;27;20102;-73
2021/12/02 00:12:24;;;;;;;9.60;1.60;;;8.00;80.00;;;;;;5134207;27;20026;-74
2021/12/02 00:14:51;;;;;;;11.43;2.88;;;8.00;79.80;;;;;;5132895;27;20023;-73
2021/12/02 00:17:27;;;;;;;7.15;1.35;;;8.00;79.40;;;;;;5134068;27;20046;-73
2021/12/02 00:22:57;;;;;;;6.43;1.55;;;8.00;79.40;;;;;;5133474;27;20027;-76
2021/12/02 00:25:24;;;;;;;5.30;1.17;;;8.00;77.80;;;;;;5134051;27;20039;-74
2021/12/02 00:27:50;;;;;;;12.43;1.50;;;7.90;78.30;;;;;;5133964;27;20038;-74
2021/12/02 00:30:17;;;;;;;6.82;1.20;;;7.90;78.10;;;;;;5133334;27;20477;-74
2021/12/02 00:32:45;;;;;;;8.75;1.27;;;7.90;77.80;;;;;;5116139;27;20484;-74
2021/12/02 00:35:11;;;;;;;4.70;1.00;;;7.90;78.20;;;;;;5133429;27;20026;-74
2021/12/02 00:37:37;;;;;;;3.92;1.13;;;7.90;78.70;;;;;;5133334;27;20046;-74
2021/12/02 00:40:04;;;;;;;6.72;0.90;;;7.90;80.40;;;;;;5133466;27;20033;-76
2021/12/02 00:42:32;;;;;;;2.60;0.63;;;8.00;80.50;;;;;;5133155;27;20463;-74
2021/12/02 00:44:58;;;;;;;5.53;1.25;;;8.00;81.50;;;;;;5132460;27;20502;-74
2021/12/02 00:47:24;;;;;;;9.88;1.40;;;8.00;81.80;;;;;;5134071;27;20410;-74
2021/12/02 00:49:49;;;;;;;3.60;0.90;;;8.00;82.00;;;;;;5133034;27;20019;-74
2021/12/02 00:52:19;;;;;;;4.55;1.10;;;8.00;82.40;;;;;;5133699;27;20409;-74
2021/12/02 00:54:46;;;;;;;6.63;0.75;;;8.00;82.40;;;;;;5132524;27;20175;-74
2021/12/02 00:57:12;;;;;;;4.85;1.08;;;8.00;82.60;;;;;;5132632;27;20490;-74
2021/12/02 00:59:39;;;;;;;4.32;1.13;;;8.00;81.30;;;;;;5129862;27;20023;-74
2021/12/02 01:02:07;;;;;;;4.07;1.17;;;8.00;81.80;;;;;;5127971;27;20051;-74
2021/12/02 01:04:33;;;;;;;12.75;1.25;;;8.00;81.60;;;;;;5129020;27;20386;-74
2021/12/02 01:06:59;;;;;;;12.63;1.90;;;8.00;81.20;;;;;;5131952;27;20031;-74
2021/12/02 01:09:24;;;;;;;6.95;1.33;;;8.00;80.60;;;;;;5133711;27;20034;-74
2021/12/02 01:11:53;;;;;;;9.38;1.35;;;8.00;80.00;;;;;;5131812;27;20530;-74
2021/12/02 01:14:20;;;;;;;9.85;1.55;;;8.00;79.80;;;;;;5133009;27;20471;-74
2021/12/02 01:16:45;;;;;;;5.47;0.85;;;8.00;80.20;;;;;;5125415;27;20023;-74
2021/12/02 01:19:12;;;;;;;5.65;1.08;;;8.00;79.90;;;;;;5113875;27;20402;-74
2021/12/02 01:21:40;;;;;;;3.95;0.95;;;8.00;79.50;;;;;;5131467;27;20489;-74
2021/12/02 01:24:09;;;;;;;7.72;1.50;;;8.00;78.80;;;;;;5133316;27;20115;-74
2021/12/02 01:26:35;;;;;;;1.88;0.63;;;8.00;78.70;;;;;;5128758;27;20042;-74
2021/12/02 01:29:05;;;;;;;10.88;1.30;;;8.00;78.90;;;;;;5132956;27;20097;-74
2021/12/02 01:31:32;;;;;;;1.85;0.75;;;8.00;78.70;;;;;;5128143;27;20050;-74
2021/12/02 01:34:01;;;;;;;2.28;0.98;;;8.00;79.30;;;;;;5130628;27;20164;-74
2021/12/02 01:36:36;;;;;;;3.28;0.70;;;8.00;80.00;;;;;;5131880;27;20027;-74
2021/12/02 01:39:04;;;;;;;5.78;1.10;;;8.00;81.60;;;;;;5132515;27;20027;-74
2021/12/02 01:41:50;;;;;;;6.50;0.90;;;8.00;82.70;;;;;;5132736;27;20038;-74
2021/12/02 01:44:19;;;;;;;2.78;0.55;;;8.00;82.70;;;;;;5125555;27;20084;-74
2021/12/02 01:46:50;;;;;;;1.58;0.57;;;8.00;83.30;;;;;;5131125;27;20027;-74
2021/12/02 01:49:18;;;;;;;1.33;0.68;;;7.90;83.50;;;;;;5132915;27;20027;-74
2021/12/02 01:51:50;;;;;;;3.50;0.70;;;7.90;83.80;;;;;;5133066;27;20390;-74
2021/12/02 01:54:18;;;;;;;6.57;1.10;;;7.90;84.20;;;;;;5122971;28;20367;-74
2021/12/02 01:56:46;;;;;;;4.03;0.88;;;7.90;84.20;;;;;;5132518;27;20027;-74
2021/12/02 01:59:16;;;;;;;1.45;0.50;;;7.80;84.40;;;;;;5132021;28;20370;-74
2021/12/02 02:01:44;;;;;;;2.28;0.70;;;7.80;84.60;;;;;;5131734;28;20031;-74
2021/12/02 02:04:10;;;;;;;4.63;0.73;;;7.80;84.60;;;;;;5129478;28;20045;-75
2021/12/02 02:06:46;;;;;;;3.42;0.80;;;7.80;84.80;;;;;;5133004;28;20031;-74
2021/12/02 02:09:12;;;;;;;3.35;0.93;;;7.80;84.40;;;;;;5130967;28;20034;-74
2021/12/02 02:11:38;;;;;;;3.03;0.55;;;7.80;84.30;;;;;;5132640;28;20027;-74
2021/12/02 02:14:07;;;;;;;4.70;0.70;;;7.80;84.40;;;;;;5131786;28;20023;-74
2021/12/02 02:16:33;;;;;;;4.15;1.23;;;7.90;84.50;;;;;;5119891;28;20492;-74
2021/12/02 02:18:59;;;;;;;4.68;0.65;;;7.90;84.50;;;;;;5133092;28;20027;-74
2021/12/02 02:21:24;;;;;;;1.38;0.50;;;8.00;84.70;;;;;;5131492;28;20420;-74
2021/12/02 02:23:58;;;;;;;4.97;1.05;;;8.10;85.00;;;;;;5132146;28;20539;-74
2021/12/02 02:26:30;;;;;;;3.63;1.75;;;8.10;85.50;;;;;;5130046;28;20493;-76
2021/12/02 02:28:57;;;;;;;2.05;0.68;;;8.00;85.40;;;;;;5130381;28;20080;-76
2021/12/02 02:31:25;;;;;;;3.08;0.60;;;8.10;85.20;;;;;;5132621;28;20031;-76
2021/12/02 02:33:52;;;;;;;4.63;0.90;;;8.10;85.30;;;;;;5132498;28;20038;-73
2021/12/02 02:36:21;;;;;;;1.27;0.50;;;8.10;85.40;;;;;;5131754;28;20432;-76
2021/12/02 02:38:57;;;;;;;1.02;0.60;;;8.00;85.80;;;;;;5132382;28;20490;-73
2021/12/02 02:41:26;;;;;;;1.13;0.50;;;8.00;85.90;;;;;;5120084;28;20041;-73
2021/12/02 02:43:56;;;;;;;0.52;0.52;;;8.00;86.10;;;;;;5131829;28;20122;-73
2021/12/02 02:46:33;;;;;;;0.77;0.35;;;8.00;86.50;;;;;;5127454;28;20039;-75
2021/12/02 02:49:01;;;;;;;0.20;0.20;;;7.90;86.70;;;;;;5123876;28;20379;-73
2021/12/02 02:51:30;;;;;;;0.32;0.20;;;7.80;87.00;;;;;;5131069;28;20033;-74
2021/12/02 02:53:57;;;;;;;4.60;0.60;;;7.80;87.10;;;;;;5131937;28;20478;-74
2021/12/02 02:56:26;;;;;;;0.30;0.30;;;7.70;87.30;;;;;;5131741;28;20028;-74
2021/12/02 03:01:45;;;;;;;0.30;0.30;;;7.60;87.60;;;;;;5126092;28;20359;-75
2021/12/02 03:04:36;;;;;;;0.20;0.20;;;7.60;87.80;;;;;;5122280;28;20414;-74
2021/12/02 03:12:07;;;;;;;1.83;0.50;;;7.50;88.10;;;;;;5134892;27;20414;-74
2021/12/02 03:17:13;;;;;;;1.90;0.70;;;7.50;88.30;;;;;;5135208;27;20032;-74
2021/12/02 03:19:43;;;;;;;3.58;0.77;;;7.50;88.30;;;;;;5133567;27;20420;-74
2021/12/02 03:22:10;;;;;;;1.92;0.47;;;7.50;88.30;;;;;;5134571;27;20026;-74
2021/12/02 03:24:36;;;;;;;4.20;0.73;;;7.50;88.20;;;;;;5134080;27;20513;-74
2021/12/02 03:27:02;;;;;;;1.42;0.70;;;7.60;88.20;;;;;;5135976;27;20027;-74
2021/12/02 03:29:28;;;;;;;6.38;1.27;;;7.60;88.00;;;;;;5135194;27;20035;-74
2021/12/02 03:31:53;;;;;;;6.38;1.20;;;7.60;87.70;;;;;;5134386;27;20027;-74
2021/12/02 03:34:19;;;;;;;4.65;0.98;;;7.60;87.50;;;;;;5135858;27;20039;-74
2021/12/02 03:36:45;;;;;;;2.92;0.70;;;7.70;87.40;;;;;;5135010;27;20099;-74
2021/12/02 03:39:11;;;;;;;3.45;0.60;;;7.70;87.20;;;;;;5134729;27;20055;-74
2021/12/02 03:41:39;;;;;;;5.68;1.02;;;7.70;87.10;;;;;;5135147;27;20039;-74
2021/12/02 03:44:06;;;;;;;3.03;1.10;;;7.80;87.10;;;;;;5135418;27;20122;-74
2021/12/02 03:46:32;;;;;;;2.28;1.15;;;7.80;87.00;;;;;;5134225;27;20134;-74
2021/12/02 03:48:59;;;;;;;3.90;0.80;;;7.80;87.50;;;;;;5129437;27;20031;-74
2021/12/02 03:51:26;;;;;;;2.83;0.88;;;7.90;86.90;;;;;;5135066;27;20035;-74
2021/12/02 03:53:52;;;;;;;4.68;1.10;;;7.90;86.80;;;;;;5132134;27;20065;-74
2021/12/02 03:56:19;;;;;;;1.35;0.63;;;7.90;86.80;;;;;;5123613;27;20040;-74
2021/12/02 03:58:46;;;;;;;2.17;0.70;;;7.90;86.80;;;;;;5123324;27;20114;-73
2021/12/02 04:01:14;;;;;;;2.28;0.73;;;7.90;86.70;;;;;;5122237;27;20031;-74
2021/12/02 04:03:40;;;;;;;2.13;0.55;;;7.90;86.70;;;;;;5122575;27;20045;-74
2021/12/02 04:06:07;;;;;;;5.57;0.68;;;7.90;86.50;;;;;;5119577;27;20100;-74
2021/12/02 04:08:52;;;;;;;6.70;1.33;;;7.90;86.40;;;;;;5126846;27;20470;-74
2021/12/02 04:16:17;;;;;;;3.25;0.50;;;7.80;86.20;;;;;;5129935;27;20109;-74
2021/12/02 04:18:43;;;;;;;1.65;0.50;;;7.80;86.90;;;;;;5130450;27;20063;-74
2021/12/02 04:21:09;;;;;;;3.70;0.32;;;7.80;86.10;;;;;;5132301;27;20059;-74
2021/12/02 04:23:35;;;;;;;1.30;0.45;;;7.80;86.10;;;;;;5131706;27;20031;-74
2021/12/02 04:26:00;;;;;;;5.05;0.38;;;7.80;86.10;;;;;;5118592;27;20039;-74
2021/12/02 04:28:26;;;;;;;1.85;0.88;;;7.80;86.10;;;;;;5117808;27;20023;-74
2021/12/02 04:30:51;;;;;;;0.77;0.60;;;7.70;86.10;;;;;;5134851;27;20068;-74
2021/12/02 04:33:17;;;;;;;1.75;0.38;;;7.70;86.00;;;;;;5134730;27;20478;-74
2021/12/02 04:35:43;;;;;;;0.63;0.47;;;7.70;86.00;;;;;;5134109;27;20034;-74
2021/12/02 04:38:08;;;;;;;1.33;0.47;;;7.70;86.10;;;;;;5135007;27;20038;-74
2021/12/02 04:40:36;;;;;;;4.57;0.60;;;7.70;86.20;;;;;;5134707;27;20047;-74
2021/12/02 04:43:02;;;;;;;5.63;0.47;;;7.70;86.50;;;;;;5133822;27;20038;-74
2021/12/02 04:45:28;;;;;;;9.23;0.60;;;7.60;86.70;;;;;;5134372;27;20045;-74
2021/12/02 04:47:54;;;;;;;0.20;0.20;;;7.60;86.80;;;;;;5134511;27;20098;-74
2021/12/02 04:50:19;;;;;;;0.20;0.20;;;7.50;87.00;;;;;;5120439;27;20470;-74
2021/12/02 04:52:45;;;;;;;0.20;0.20;;;7.50;87.20;;;;;;5134300;27;20051;-74
2021/12/02 04:55:11;;;;;;;0.20;0.20;;;7.40;87.40;;;;;;5134602;27;20039;-75
2021/12/02 04:57:36;;;;;;;0.30;0.30;;;7.40;87.50;;;;;;5132518;27;20035;-75
2021/12/02 05:00:05;;;;;;;0.25;0.25;;;7.30;87.10;;;;;;5113472;27;20144;-74
2021/12/02 05:02:31;;;;;;;0.93;0.47;;;7.20;87.30;;;;;;5130891;27;20039;-74
2021/12/02 05:04:56;;;;;;;0.50;0.40;;;7.20;87.60;;;;;;5130240;27;20046;-74
2021/12/02 05:07:22;;;;;;;0.43;0.22;;;7.10;87.70;;;;;;5134328;27;20034;-74
2021/12/02 05:09:48;;;;;;;0.40;0.40;;;7.10;87.90;;;;;;5133050;27;20027;-74
2021/12/02 05:12:13;;;;;;;0.30;0.30;;;7.00;87.90;;;;;;5134150;27;20063;-74
2021/12/02 05:14:39;;;;;;;0.20;0.20;;;7.00;88.10;;;;;;5133817;27;20027;-74
2021/12/02 05:17:04;;;;;;;0.40;0.40;;;7.00;88.10;;;;;;5133243;27;20099;-74
2021/12/02 05:19:30;;;;;;;1.45;0.43;;;6.90;88.10;;;;;;5133834;27;20109;-74
2021/12/02 05:21:56;;;;;;;0.57;0.40;;;7.00;88.20;;;;;;5132980;27;20607;-74
2021/12/02 05:24:22;;;;;;;3.28;0.47;;;6.90;88.20;;;;;;5132637;27;20027;-74
2021/12/02 05:26:47;;;;;;;0.28;0.28;;;6.90;88.20;;;;;;5133841;27;20039;-74
2021/12/02 05:29:13;;;;;;;0.30;0.30;;;6.90;88.60;;;;;;5128346;27;20390;-74
2021/12/02 05:31:39;;;;;;;0.30;0.30;;;6.90;88.30;;;;;;5132283;27;20114;-74
2021/12/02 05:34:05;;;;;;;4.07;0.82;;;6.80;88.30;;;;;;5133104;27;20023;-74
2021/12/02 05:36:32;;;;;;;3.63;0.63;;;6.80;88.40;;;;;;5133678;27;20031;-74
2021/12/02 05:38:58;;;;;;;0.40;0.40;;;6.80;88.50;;;;;;5132595;27;20050;-74
2021/12/02 05:41:24;;;;;;;1.30;0.60;;;6.80;88.50;;;;;;5132162;27;20027;-73
2021/12/02 05:43:49;;;;;;;0.50;0.50;;;6.90;88.60;;;;;;5133266;27;20058;-76
2021/12/02 05:46:15;;;;;;;0.75;0.75;;;6.80;88.60;;;;;;5132662;27;20055;-75
2021/12/02 05:48:41;;;;;;;0.63;0.47;;;6.80;88.60;;;;;;5132714;27;20023;-76
2021/12/02 05:51:07;;;;;;;1.85;0.60;;;6.80;88.60;;;;;;5127628;27;20434;-74
2021/12/02 05:53:33;;;;;;;5.50;0.60;;;6.80;88.60;;;;;;5128261;27;20107;-76
2021/12/02 05:55:59;;;;;;;0.40;0.40;;;6.80;88.60;;;;;;5131588;28;20061;-76
2021/12/02 05:58:24;;;;;;;0.30;0.30;;;6.80;88.60;;;;;;5131558;28;20023;-75
2021/12/02 06:00:59;;;;;;;0.70;0.30;;;6.80;88.60;;;;;;5130239;28;21043;-76
2021/12/02 06:03:25;;;;;;;0.40;0.40;;;6.80;88.50;;;;;;5130704;28;20075;-76
2021/12/02 06:05:50;;;;;;;0.10;0.10;;;6.80;88.50;;;;;;5129533;28;20043;-75
2021/12/02 06:08:16;;;;;;;0.20;0.20;;;6.80;88.40;;;;;;5128833;28;20092;-74
2021/12/02 06:10:42;;;;;;;0.75;0.47;;;6.70;88.40;;;;;;5128672;28;20035;-77
2021/12/02 06:13:08;;;;;;;2.03;0.50;;;6.70;88.50;;;;;;5132566;28;20469;-75
2021/12/02 06:15:34;;;;;;;10.25;0.70;;;6.70;88.60;;;;;;5133099;28;20082;-76
2021/12/02 06:17:59;;;;;;;0.30;0.30;;;6.70;88.60;;;;;;5130973;28;20100;-74
2021/12/02 06:20:25;;;;;;;0.38;0.38;;;6.70;88.60;;;;;;5128317;28;20184;-74
2021/12/02 06:22:51;;;;;;;0.43;0.43;;;6.70;88.70;;;;;;5129532;28;20039;-73
2021/12/02 06:27:43;;;;;;;0.40;0.40;;;6.70;88.80;;;;;;5128937;28;20027;-74
2021/12/02 06:30:11;;;;;;;2.10;0.45;;;6.60;88.80;;;;;;5129356;28;20156;-76
2021/12/02 06:32:36;;;;;;;0.28;0.28;;;6.60;88.80;;;;;;5130485;28;20540;-75
2021/12/02 06:35:02;;;;;;;0.98;0.60;;;6.60;88.90;;;;;;5129429;28;20046;-71
2021/12/02 06:37:28;;;;;;;0.68;0.68;;;6.60;88.80;;;;;;5130432;28;20066;-72
2021/12/02 06:39:53;;;;;;;0.30;0.30;;;6.60;88.80;;;;;;5130452;28;20046;-72
2021/12/02 06:42:19;;;;;;;0.40;0.40;;;6.60;88.80;;;;;;5128188;27;20028;-76
2021/12/02 06:44:45;;;;;;;2.78;0.70;;;6.60;88.80;;;;;;5127259;27;20054;-77
2021/12/02 06:47:11;;;;;;;0.57;0.43;;;6.60;88.80;;;;;;5133155;27;20035;-77
2021/12/02 06:49:41;;;;;;;0.30;0.30;;;6.50;88.80;;;;;;5133537;27;20035;-73
2021/12/02 06:52:11;;;;;;;1.08;0.65;;;6.50;88.90;;;;;;5136452;27;20023;-70
2021/12/02 06:54:37;;;;;;;0.75;0.50;;;6.50;88.90;;;;;;5136382;27;20402;-77
2021/12/02 06:57:02;;;;;;;1.35;0.40;;;6.50;89.00;;;;;;5134279;27;20027;-77
2021/12/02 06:59:28;;;;;;;0.60;0.60;;;6.50;89.10;;;;;;5136914;27;20100;-76
2021/12/02 07:01:54;;;;;;;3.60;0.70;;;6.50;89.10;;;;;;5135891;27;20114;-76
2021/12/02 07:04:19;;;;;;;3.38;0.98;;;6.50;89.10;;;;;;5135696;27;20080;-76
2021/12/02 07:06:45;;;;;;;4.90;0.60;;;6.50;89.10;;;;;;5136537;27;20077;-77
2021/12/02 07:09:11;;;;;;;1.98;0.68;;;6.60;89.10;;;;;;5135895;27;20046;-76
2021/12/02 07:11:37;;;;;;;0.70;0.70;;;6.60;89.10;;;;;;5134960;27;20035;-77
2021/12/02 07:14:06;;;;;;;1.13;0.65;;;6.60;89.00;;;;;;5136168;27;20023;-77
2021/12/02 07:16:37;;;;;;;1.25;0.52;;;6.60;88.90;;;;;;5135394;27;20390;-77
2021/12/02 07:19:05;;;;;;;2.33;0.77;;;6.60;88.80;;;;;;5135242;27;20027;-76
2021/12/02 07:21:31;;;;;;;1.60;0.70;;;6.70;88.70;;;;;;5136210;27;20115;-77
2021/12/02 07:23:57;;;;;;;2.00;1.02;;;6.70;88.60;;;;;;5135353;27;20126;-76
2021/12/02 07:26:23;;;;;;;1.02;0.85;;;6.70;88.50;;;;;;5135895;27;20442;-77
2021/12/02 07:28:48;;;;;;;5.47;1.27;;;6.70;88.40;;;;;;5135882;27;20027;-76
2021/12/02 07:31:15;;;;;;;2.28;0.70;;;6.70;88.30;;;;;;5135442;27;20039;-77
2021/12/02 07:33:48;;;;;;;2.38;0.68;;;6.70;88.30;;;;;;5104132;27;20028;-76
2021/12/02 07:36:15;;;;;;;1.63;0.47;;;6.70;88.40;;;;;;5136126;27;20035;-77
2021/12/02 07:38:41;;;;;;;3.22;0.70;;;6.70;88.40;;;;;;5134889;27;20071;-76
2021/12/02 07:41:07;;;;;;;0.32;0.32;;;6.60;88.40;;;;;;5135930;27;20027;-77
2021/12/02 07:43:35;;;;;;;4.35;0.60;;;6.50;88.40;;;;;;5135670;27;20069;-77
2021/12/02 07:46:01;;;;;;;0.90;0.60;;;6.50;88.40;;;;;;5135226;27;20057;-77
2021/12/02 07:48:27;;;;;;;2.38;1.05;;;6.50;88.40;;;;;;5124267;27;20031;-76
2021/12/02 07:51:01;;;;;;;1.30;0.73;;;6.40;88.40;;;;;;5135588;27;20128;-77
2021/12/02 07:53:27;;;;;;;;;;;6.40;88.60;;;;;;5135035;27;20482;-77
2021/12/02 07:55:55;;;;;;;2.60;0.60;;;6.40;88.60;;;;;;5135370;27;20251;-76
2021/12/02 07:58:22;;;;;;;4.43;0.90;;;6.40;88.60;;;;;;5135750;27;20033;-77
2021/12/02 08:00:50;;;;;;;1.02;0.68;;;6.30;88.60;;;;;;5134236;27;20109;-77
2021/12/02 08:03:16;;;;;;;0.30;0.30;;;6.30;88.70;;;;;;5129864;27;20110;-76
2021/12/02 08:05:42;;;;;;;17.00;0.63;;;6.30;88.60;;;;;;5134016;27;20494;-72
2021/12/02 08:08:08;;;;;;;0.30;0.30;;;6.30;88.60;;;;;;5134964;27;20019;-79
2021/12/02 08:10:35;;;;;;;6.88;0.63;;;6.30;88.40;;;;;;5133119;27;20363;-76
2021/12/02 08:13:02;;;;;;;0.30;0.30;;;6.30;88.40;;;;;;5131236;27;20042;-75
2021/12/02 08:15:30;;;;;;;2.22;0.95;;;6.20;88.40;;;;;;5134240;27;20540;-75
2021/12/02 08:17:56;;;;;;;1.48;1.20;;;6.20;88.50;;;;;;5134542;27;20031;-75
2021/12/02 08:20:25;;;;;;;0.45;0.45;;;6.20;88.60;;;;;;5133639;27;20443;-75
2021/12/02 08:22:51;;;;;;;0.68;0.68;;;6.20;88.60;;;;;;5135200;27;20023;-75
2021/12/02 08:25:20;;;;;;;0.40;0.40;;;6.20;88.60;;;;;;5134607;27;20470;-76
2021/12/02 08:27:46;;;;;;;0.40;0.40;;;6.10;88.70;;;;;;5134121;27;20034;-75
2021/12/02 08:30:14;;;;;;;0.28;0.28;;;6.10;88.70;;;;;;5129837;27;20031;-76
2021/12/02 08:32:42;;;;;;;1.23;0.63;;;6.10;88.80;;;;;;5129707;27;20038;-76
2021/12/02 08:35:09;;;;;;;5.35;0.70;;;6.20;88.80;;;;;;5133382;27;20027;-76
2021/12/02 08:37:36;;;;;;;0.98;0.63;;;6.20;88.90;;;;;;5134459;27;20031;-76
2021/12/02 08:40:03;;;;;;;1.83;0.57;;;6.20;88.90;;;;;;5134420;27;20171;-76
2021/12/02 08:42:32;;;;;;;1.13;0.60;;;6.20;88.90;;;;;;5133230;27;20041;-75
2021/12/02 08:44:58;;;;;;;1.08;0.80;;;6.20;89.00;;;;;;5133300;27;20051;-75
2021/12/02 08:47:27;;;;;;;4.47;1.20;;;6.20;89.00;;;;;;5133098;27;20038;-76
2021/12/02 08:49:53;;;;;;;2.00;0.80;;;6.20;89.30;;;;;;5133080;27;20023;-76
2021/12/02 08:52:21;;;;;;;2.95;1.10;;;6.30;89.40;;;;;;5133412;27;20122;-75
2021/12/02 08:54:49;;;;;;;2.13;0.85;;;6.30;89.40;;;;;;5133091;27;20035;-75
2021/12/02 08:57:14;;;;;;;5.22;1.17;;;6.40;89.50;;;;;;5133681;27;20031;-76
2021/12/02 08:59:42;;;;;;;2.47;0.77;;;6.40;89.50;;;;;;5132380;27;20027;-76
2021/12/02 09:02:08;;;;;;;1.38;0.80;;;6.50;89.70;;;;;;5130334;27;20063;-76
2021/12/02 09:04:34;;;;;;;1.55;0.77;;;6.60;89.70;;;;;;5132816;27;20434;-75
2021/12/02 09:06:59;;;;;;;2.50;0.80;;;6.60;89.70;;;;;;5131698;27;20031;-76
2021/12/02 09:09:26;;;;;;;2.80;0.80;;;6.70;89.80;;;;;;5132839;27;20080;-75
2021/12/02 09:11:54;;;;;;;2.88;0.60;;;6.70;89.80;;;;;;5133468;27;20050;-76
2021/12/02 09:14:19;;;;;;;3.50;0.70;;;6.80;89.80;;;;;;5133169;27;20471;-76
2021/12/02 09:16:45;;;;;;;1.23;0.68;;;6.80;90.10;;;;;;5132832;27;20030;-76
2021/12/02 09:19:11;;;;;;;1.75;0.63;;;6.90;89.60;;;;;;5133973;27;20019;-76
2021/12/02 09:21:36;;;;;;;4.03;0.80;;;7.00;89.50;;;;;;5133756;27;20039;-75
2021/12/02 09:24:02;;;;;;;0.73;0.55;;;7.00;89.40;;;;;;5133006;27;20106;-73
2021/12/02 09:26:28;;;;;;;5.82;0.50;;;7.00;89.30;;;;;;5122918;27;20044;-76
2021/12/02 09:28:56;;;;;;;2.63;0.90;;;7.10;89.20;;;;;;5126444;27;20057;-76
2021/12/02 09:31:22;;;;;;;1.55;0.65;;;7.10;89.10;;;;;;5132644;27;20039;-75
2021/12/02 09:33:48;;;;;;;1.05;0.70;;;7.10;89.10;;;;;;5133675;27;20026;-77
2021/12/02 09:36:16;;;;;;;1.42;0.65;;;7.10;89.00;;;;;;5133511;27;20031;-77
2021/12/02 09:38:43;;;;;;;2.75;0.75;;;7.10;88.80;;;;;;5133123;27;20493;-77
2021/12/02 09:41:11;;;;;;;0.82;0.60;;;7.10;89.00;;;;;;5133224;27;20045;-76
2021/12/02 09:43:38;;;;;;;2.20;0.50;;;7.00;88.10;;;;;;5133139;27;20058;-75
2021/12/02 09:46:04;;;;;;;0.88;0.60;;;7.00;88.10;;;;;;5132516;27;20038;-75
2021/12/02 09:48:31;;;;;;;1.00;0.50;;;7.00;88.10;;;;;;5133617;27;20027;-75
2021/12/02 09:51:11;;;;;;;0.93;0.60;;;6.90;87.90;;;;;;5132424;27;20046;-76
2021/12/02 09:56:29;;;;;;;0.45;0.45;;;6.90;87.80;;;;;;5132170;27;20027;-76
2021/12/02 09:59:02;;;;;;;1.02;0.70;;;6.80;87.70;;;;;;5132192;28;20040;-76
2021/12/02 10:01:39;;;;;;;2.80;0.52;;;6.80;87.90;;;;;;5131480;28;20035;-75
2021/12/02 10:04:06;;;;;;;0.40;0.32;;;6.80;88.00;;;;;;5124564;28;20545;-75
2021/12/02 10:06:32;;;;;;;0.93;0.60;;;6.80;88.00;;;;;;5131774;28;20486;-75
2021/12/02 10:09:13;;;;;;;5.82;1.10;;;6.80;88.00;;;;;;5133484;28;20027;-75
2021/12/02 10:11:53;;;;;;;2.42;0.77;;;6.90;88.10;;;;;;5133201;28;20077;-75
2021/12/02 10:14:32;;;;;;;0.65;0.55;;;6.80;88.00;;;;;;5128686;28;20049;-76
2021/12/02 10:17:18;;;;;;;5.15;0.82;;;6.90;88.20;;;;;;5124201;27;20035;-76
2021/12/02 10:22:45;;;;;;;8.00;0.93;;;6.90;88.30;;;;;;5137471;27;20031;-80
2021/12/02 10:25:11;;;;;;;2.70;0.85;;;6.80;88.20;;;;;;5127060;27;20047;-75
2021/12/02 10:27:37;;;;;;;1.10;0.70;;;6.90;88.40;;;;;;5135206;27;20118;-75
2021/12/02 10:30:23;;;;;;;4.45;0.90;;;6.90;88.50;;;;;;5131504;27;20031;-73
2021/12/02 10:32:51;;;;;;;1.15;0.50;;;6.90;88.60;;;;;;5136303;27;20046;-74
2021/12/02 10:35:17;;;;;;;0.75;0.43;;;6.90;88.30;;;;;;5133215;27;20035;-75
2021/12/02 10:37:43;;;;;;;0.30;0.30;;;6.90;88.30;;;;;;5136975;27;20035;-74
2021/12/02 10:40:11;;;;;;;2.80;0.50;;;6.90;88.40;;;;;;5136644;27;20023;-77
2021/12/02 10:42:42;;;;;;;0.60;0.45;;;6.90;88.40;;;;;;5136006;27;20031;-76
2021/12/02 10:45:31;;;;;;;1.60;0.50;;;6.90;88.40;;;;;;5135886;27;20126;-78
2021/12/02 10:47:58;;;;;;;0.20;0.20;;;6.90;88.50;;;;;;5133911;27;20506;-78
2021/12/02 10:50:26;;;;;;;0.30;0.30;;;6.90;88.40;;;;;;5136183;27;20031;-69
2021/12/02 10:52:52;;;;;;;0.43;0.43;;;6.80;88.40;;;;;;5128659;27;20028;-76
2021/12/02 10:55:22;;;;;;;1.85;0.50;;;6.80;88.60;;;;;;5130089;27;20042;-75
2021/12/02 10:57:54;;;;;;;0.77;0.35;;;6.80;88.80;;;;;;5136699;27;20128;-76
2021/12/02 11:00:29;;;;;;;0.82;0.63;;;6.80;88.90;;;;;;5136106;27;20035;-75
2021/12/02 11:02:57;;;;;;;0.85;0.50;;;6.80;88.90;;;;;;5125834;27;20051;-76
2021/12/02 11:05:29;;;;;;;0.40;0.40;;;6.80;88.70;;;;;;5130195;27;20043;-78
2021/12/02 11:08:07;;;;;;;0.40;0.40;;;6.70;88.60;;;;;;5136622;27;20034;-76
2021/12/02 11:10:39;;;;;;;0.60;0.60;;;6.70;88.80;;;;;;5135927;27;20454;-77
2021/12/02 11:13:06;;;;;;;0.50;0.50;;;6.80;88.90;;;;;;5136619;27;20019;-77
2021/12/02 11:15:34;;;;;;;1.65;0.50;;;6.80;88.90;;;;;;5135890;27;20509;-74
2021/12/02 11:18:06;;;;;;;2.42;0.90;;;6.80;88.90;;;;;;5136525;27;20498;-77
2021/12/02 11:20:50;;;;;;;1.30;0.70;;;6.90;89.00;;;;;;5134559;27;20037;-78
2021/12/02 11:23:20;;;;;;;0.50;0.50;;;6.90;88.80;;;;;;5135943;27;20039;-77
2021/12/02 11:26:07;;;;;;;1.77;0.50;;;6.90;88.60;;;;;;5129241;27;20045;-77
2021/12/02 11:28:37;;;;;;;2.15;0.50;;;7.00;88.60;;;;;;5133363;27;20031;-77
2021/12/02 11:31:21;;;;;;;1.17;0.80;;;7.00;88.30;;;;;;5135211;27;20062;-78
2021/12/02 11:33:49;;;;;;;2.10;0.43;;;7.10;88.30;;;;;;5133590;27;20027;-77
2021/12/02 11:36:24;;;;;;;2.78;0.80;;;7.10;87.90;;;;;;5132961;27;20033;-74
2021/12/02 11:38:56;;;;;;;0.50;0.50;;;7.10;87.80;;;;;;5132063;27;20111;-78
2021/12/02 11:41:22;;;;;;;2.30;0.63;;;7.10;87.60;;;;;;5134182;27;20030;-77
2021/12/02 11:43:49;;;;;;;0.50;0.50;;;7.20;87.60;;;;;;5133342;27;20039;-77
2021/12/02 11:46:15;;;;;;;0.98;0.50;;;7.20;87.40;;;;;;5133831;27;20042;-74
2021/12/02 11:48:42;;;;;;;0.45;0.43;;;7.20;87.30;;;;;;5133953;27;20528;-75
2021/12/02 11:51:17;;;;;;;0.85;0.60;;;7.20;87.30;;;;;;5132420;27;20088;-71
2021/12/02 11:53:44;;;;;;;1.63;0.43;;;7.20;87.10;;;;;;5123923;27;20052;-73
2021/12/02 11:56:19;;;;;;;1.10;0.60;;;7.20;87.40;;;;;;5132681;27;20023;-75
2021/12/02 11:58:46;;;;;;;0.43;0.43;;;7.10;87.90;;;;;;5130366;27;20027;-76
2021/12/02 12:01:30;;;;;;;0.30;0.30;;;7.00;88.70;;;;;;5132254;27;20035;-76
2021/12/02 12:04:05;;;;;;;0.75;0.40;;;6.90;89.30;;;;;;5132770;27;20036;-76
2021/12/02 12:06:34;;;;;;;0.40;0.40;;;6.80;90.00;;;;;;5132130;27;20035;-76
2021/12/02 12:09:00;;;;;;;1.65;0.60;;;6.70;90.30;;;;;;5133175;27;20036;-76
2021/12/02 12:11:32;;;;;;;0.30;0.30;;;6.60;90.20;;;;;;5131845;27;20026;-75
2021/12/02 12:14:10;;;;;;;2.83;0.50;;;6.50;90.30;;;;;;5132897;27;20043;-76
2021/12/02 12:16:38;;;;;;;0.40;0.40;;;6.50;90.40;;;;;;5133316;27;20031;-75
2021/12/02 12:19:30;;;;;;;0.45;0.45;;;6.50;90.40;;;;;;5127774;27;20038;-76
2021/12/02 12:22:12;;;;;;;0.50;0.50;;;6.50;90.40;;;;;;5133177;27;20084;-74
2021/12/02 12:24:45;;;;;;;0.40;0.40;;;6.50;90.30;;;;;;5133332;27;20051;-77
2021/12/02 12:27:18;;;;;;;0.50;0.50;;;6.60;90.30;;;;;;5133083;27;20035;-76
2021/12/02 12:29:47;;;;;;;0.95;0.70;;;6.60;90.30;;;;;;5129928;27;20108;-77
2021/12/02 12:32:34;;;;;;;0.88;0.88;;;6.60;90.20;;;;;;5134018;27;20467;-77
2021/12/02 12:35:07;;;;;;;0.65;0.52;;;6.60;90.20;;;;;;5133516;27;20027;-77
2021/12/02 12:37:48;;;;;;;0.80;0.68;;;6.60;90.10;;;;;;5134099;27;20027;-78
2021/12/02 12:40:30;;;;;;;0.85;0.50;;;6.70;90.10;;;;;;5133314;27;20035;-76
2021/12/02 12:43:02;;;;;;;2.33;0.50;;;6.70;90.00;;;;;;5133771;27;20019;-76
2021/12/02 12:45:39;;;;;;;0.93;0.50;;;6.80;89.90;;;;;;5131545;27;20042;-68
2021/12/02 12:48:07;;;;;;;0.60;0.60;;;6.80;89.90;;;;;;5133114;27;20073;-77
2021/12/02 12:50:41;;;;;;;0.63;0.57;;;6.80;89.80;;;;;;5133668;27;20648;-74
2021/12/02 12:53:09;;;;;;;1.33;0.85;;;6.80;89.80;;;;;;5131659;27;20031;-77
2021/12/02 12:55:55;;;;;;;1.08;0.32;;;6.80;89.80;;;;;;5132409;27;20542;-74
2021/12/02 12:58:23;;;;;;;0.47;0.47;;;6.90;89.70;;;;;;5133108;27;20031;-74
2021/12/02 13:00:51;;;;;;;1.88;0.60;;;6.90;89.50;;;;;;5134601;27;20156;-72
2021/12/02 13:03:27;;;;;;;0.40;0.40;;;7.00;89.40;;;;;;5122409;27;20390;-73
2021/12/02 13:06:01;;;;;;;0.93;0.63;;;7.00;89.20;;;;;;5131437;27;20042;-73
2021/12/02 13:08:37;;;;;;;0.63;0.43;;;7.10;88.50;;;;;;5130975;27;20359;-76
2021/12/02 13:11:11;;;;;;;1.67;0.50;;;7.10;88.30;;;;;;5132406;27;20035;-76
2021/12/02 13:13:38;;;;;;;1.00;0.47;;;7.20;88.10;;;;;;5132313;27;20030;-76
2021/12/02 13:16:15;;;;;;;0.43;0.43;;;7.10;87.90;;;;;;5131491;27;20059;-77
2021/12/02 13:18:52;;;;;;;0.30;0.30;;;7.20;88.70;;;;;;5130061;27;20025;-77
2021/12/02 13:21:28;;;;;;;0.47;0.40;;;7.20;88.20;;;;;;5132344;27;20082;-76
2021/12/02 13:23:57;;;;;;;2.42;0.93;;;7.20;88.60;;;;;;5132558;27;20023;-84
2021/12/02 13:26:34;;;;;;;4.95;0.80;;;7.20;88.70;;;;;;5137374;27;20039;-83
2021/12/02 13:29:37;;;;;;;2.30;0.70;;;7.20;89.10;;;;;;5135232;27;20096;-81
2021/12/02 13:32:06;;;;;;;2.42;0.70;;;7.20;88.70;;;;;;5128187;27;20038;-71